Time;durP1;ratioP1;P1;durP2;ratioP2;P2;SDS_P1;SDS_P2;PMS_P1;PMS_P2;Temp;Humidity;BMP_temperature;BMP_pressure;BME280_temperature;BME280_humidity;BME280_pressure;Samples;Min_cycle;Max_cycle;Signal;HPM_P1;HPM_P2
2023/02/26 00:00:03;;;;;;;12.10;3.85;;;;;;;;;;5017406;28;20042;-70
2023/02/26 00:02:28;;;;;;;10.00;3.92;;;;;;;;;;5023029;28;20086;-70
2023/02/26 00:04:53;;;;;;;15.95;4.82;;;;;;;;;;5029214;28;20407;-70
2023/02/26 00:07:18;;;;;;;17.17;4.37;;;;;;;;;;5022235;28;20029;-70
2023/02/26 00:09:43;;;;;;;14.97;3.93;;;;;;;;;;5024510;28;20286;-70
2023/02/26 00:12:13;;;;;;;17.95;4.15;;;;;;;;;;5019078;28;20285;-70
2023/02/26 00:14:38;;;;;;;15.38;4.90;;;;;;;;;;5022816;28;20022;-69
2023/02/26 00:17:16;;;;;;;11.73;4.15;;;;;;;;;;5018470;28;20096;-70
2023/02/26 00:19:41;;;;;;;11.70;3.75;;;;;;;;;;5021274;28;20052;-70
2023/02/26 00:22:06;;;;;;;11.23;3.45;;;;;;;;;;5023227;28;20033;-70
2023/02/26 00:24:32;;;;;;;13.02;3.42;;;;;;;;;;5019998;28;20065;-70
2023/02/26 00:26:57;;;;;;;16.27;3.97;;;;;;;;;;5026773;28;20378;-70
2023/02/26 00:29:23;;;;;;;12.60;3.70;;;;;;;;;;5024493;28;20041;-70
2023/02/26 00:31:48;;;;;;;11.43;3.13;;;;;;;;;;5028817;28;20043;-70
2023/02/26 00:34:13;;;;;;;12.73;3.45;;;;;;;;;;5023070;28;20049;-70
2023/02/26 00:37:04;;;;;;;18.38;3.60;;;;;;;;;;5024489;28;21649;-70
2023/02/26 00:39:41;;;;;;;12.52;3.92;;;;;;;;;;5018074;28;20025;-70
2023/02/26 00:42:06;;;;;;;15.48;4.13;;;;;;;;;;5017973;28;20113;-70
2023/02/26 00:44:32;;;;;;;12.32;3.05;;;;;;;;;;5018895;28;20453;-70
2023/02/26 00:46:57;;;;;;;14.57;3.38;;;;;;;;;;5030267;28;20096;-71
2023/02/26 00:49:30;;;;;;;9.07;3.50;;;;;;;;;;5018699;28;20471;-70
2023/02/26 00:51:58;;;;;;;10.10;3.08;;;;;;;;;;5027742;28;20253;-70
2023/02/26 00:54:25;;;;;;;14.75;3.15;;;;;;;;;;5022008;28;20029;-69
2023/02/26 00:56:50;;;;;;;24.42;3.83;;;;;;;;;;5022763;28;20017;-69
2023/02/26 00:59:16;;;;;;;10.45;2.67;;;;;;;;;;5020866;28;20096;-70
2023/02/26 01:01:41;;;;;;;9.90;3.10;;;;;;;;;;5022858;28;20034;-70
2023/02/26 01:04:07;;;;;;;8.82;2.63;;;;;;;;;;5021668;28;20054;-70
2023/02/26 01:06:33;;;;;;;19.15;2.58;;;;;;;;;;5015177;28;20065;-71
2023/02/26 01:09:22;;;;;;;11.82;2.65;;;;;;;;;;5017360;28;21216;-69
2023/02/26 01:11:47;;;;;;;13.02;3.03;;;;;;;;;;5015706;28;20049;-70
2023/02/26 01:14:12;;;;;;;10.90;2.60;;;;;;;;;;5027032;28;20029;-70
2023/02/26 01:16:46;;;;;;;10.23;2.72;;;;;;;;;;5018370;28;20025;-70
2023/02/26 01:19:24;;;;;;;13.65;2.75;;;;;;;;;;5022704;28;20025;-70
2023/02/26 01:21:52;;;;;;;12.30;2.70;;;;;;;;;;5026470;28;20030;-71
2023/02/26 01:24:19;;;;;;;12.57;2.97;;;;;;;;;;5024975;28;20021;-72
2023/02/26 01:26:46;;;;;;;7.40;2.38;;;;;;;;;;5019889;28;20034;-72
2023/02/26 01:29:11;;;;;;;11.07;2.35;;;;;;;;;;5026105;28;20114;-72
2023/02/26 01:31:55;;;;;;;11.63;2.47;;;;;;;;;;5023344;28;20133;-72
2023/02/26 01:34:25;;;;;;;15.05;3.20;;;;;;;;;;5022583;28;20025;-72
2023/02/26 01:36:57;;;;;;;17.75;3.00;;;;;;;;;;5027020;28;20478;-72
2023/02/26 01:39:28;;;;;;;7.32;2.95;;;;;;;;;;5020434;28;20026;-72
2023/02/26 01:41:57;;;;;;;10.07;3.08;;;;;;;;;;5019777;28;20429;-72
2023/02/26 01:44:26;;;;;;;10.68;2.60;;;;;;;;;;5018146;28;20037;-72
2023/02/26 01:47:09;;;;;;;14.55;2.63;;;;;;;;;;5021568;28;20487;-72
2023/02/26 01:49:35;;;;;;;6.93;2.35;;;;;;;;;;5022601;28;20418;-70
2023/02/26 01:52:01;;;;;;;8.57;2.72;;;;;;;;;;5021587;28;20029;-71
2023/02/26 01:54:52;;;;;;;13.63;2.75;;;;;;;;;;5022345;28;20032;-71
2023/02/26 01:57:18;;;;;;;9.10;2.65;;;;;;;;;;5022906;28;20036;-71
2023/02/26 01:59:45;;;;;;;17.27;3.25;;;;;;;;;;5018094;28;20033;-71
2023/02/26 02:02:12;;;;;;;11.60;2.90;;;;;;;;;;5021632;28;20025;-71
2023/02/26 02:04:38;;;;;;;8.98;3.35;;;;;;;;;;5019704;28;20022;-71
2023/02/26 02:07:04;;;;;;;9.27;2.80;;;;;;;;;;5022446;28;20484;-71
2023/02/26 02:09:29;;;;;;;21.73;3.30;;;;;;;;;;5023879;28;20161;-71
2023/02/26 02:11:54;;;;;;;7.55;2.33;;;;;;;;;;5018085;28;20049;-71
2023/02/26 02:14:31;;;;;;;10.63;2.30;;;;;;;;;;5018631;28;20026;-71
2023/02/26 02:17:13;;;;;;;4.78;2.30;;;;;;;;;;5022259;28;20279;-71
2023/02/26 02:19:44;;;;;;;6.13;2.20;;;;;;;;;;5024635;28;20022;-71
2023/02/26 02:22:28;;;;;;;12.48;2.70;;;;;;;;;;5024370;28;20018;-71
2023/02/26 02:25:00;;;;;;;14.63;2.58;;;;;;;;;;5027163;28;20029;-71
2023/02/26 02:27:34;;;;;;;13.40;2.90;;;;;;;;;;5018127;28;20021;-71
2023/02/26 02:30:09;;;;;;;6.10;2.75;;;;;;;;;;5027685;28;20014;-71
2023/02/26 02:32:43;;;;;;;15.65;3.55;;;;;;;;;;5025534;28;20030;-71
2023/02/26 02:35:09;;;;;;;7.45;2.60;;;;;;;;;;5014673;28;20028;-72
2023/02/26 02:37:49;;;;;;;15.43;3.42;;;;;;;;;;5022153;28;20022;-71
2023/02/26 02:40:18;;;;;;;15.40;3.60;;;;;;;;;;5020170;28;20039;-72
2023/02/26 02:42:45;;;;;;;9.88;3.03;;;;;;;;;;5023286;28;20579;-71
2023/02/26 02:45:14;;;;;;;19.33;3.40;;;;;;;;;;5018290;28;20046;-71
2023/02/26 02:47:40;;;;;;;12.88;4.15;;;;;;;;;;5013727;28;20407;-72
2023/02/26 02:50:08;;;;;;;8.57;2.60;;;;;;;;;;5015798;28;20030;-71
2023/02/26 02:52:47;;;;;;;4.63;2.28;;;;;;;;;;5023251;28;20033;-71
2023/02/26 02:55:16;;;;;;;18.80;2.33;;;;;;;;;;5024504;28;20117;-71
2023/02/26 02:57:50;;;;;;;7.40;2.20;;;;;;;;;;5026112;28;20036;-71
2023/02/26 03:00:16;;;;;;;11.20;2.60;;;;;;;;;;5024000;28;20017;-71
2023/02/26 03:02:59;;;;;;;13.70;2.85;;;;;;;;;;5021806;28;20419;-71
2023/02/26 03:05:25;;;;;;;17.63;2.50;;;;;;;;;;5027326;28;20025;-71
2023/02/26 03:07:53;;;;;;;15.48;2.53;;;;;;;;;;5024077;28;20091;-71
2023/02/26 03:10:18;;;;;;;10.15;2.40;;;;;;;;;;5029678;28;20025;-71
2023/02/26 03:12:43;;;;;;;6.57;1.70;;;;;;;;;;5026488;28;20034;-71
2023/02/26 03:15:09;;;;;;;4.57;1.98;;;;;;;;;;5022937;28;20017;-71
2023/02/26 03:17:41;;;;;;;9.00;1.55;;;;;;;;;;5025574;28;20107;-71
2023/02/26 03:20:06;;;;;;;13.63;1.75;;;;;;;;;;5022996;28;20013;-71
2023/02/26 03:22:44;;;;;;;10.65;1.70;;;;;;;;;;5019514;28;20368;-71
2023/02/26 03:25:41;;;;;;;11.85;1.45;;;;;;;;;;5020932;28;20390;-71
2023/02/26 03:28:18;;;;;;;4.80;1.45;;;;;;;;;;4998662;28;20395;-71
2023/02/26 03:31:04;;;;;;;2.88;1.20;;;;;;;;;;5026771;28;20014;-72
2023/02/26 03:33:46;;;;;;;9.57;1.30;;;;;;;;;;5019669;28;20044;-71
2023/02/26 03:36:19;;;;;;;4.43;1.17;;;;;;;;;;5023810;28;20022;-71
2023/02/26 03:39:04;;;;;;;9.90;1.48;;;;;;;;;;5021489;28;20022;-71
2023/02/26 03:41:32;;;;;;;5.10;1.52;;;;;;;;;;5018475;28;20021;-71
2023/02/26 03:44:00;;;;;;;12.88;1.75;;;;;;;;;;5024084;28;20025;-71
2023/02/26 03:46:30;;;;;;;6.30;2.10;;;;;;;;;;5024188;28;20117;-71
2023/02/26 03:48:55;;;;;;;;;;;;;;;;;;5026355;28;20474;-71
2023/02/26 03:51:21;;;;;;;9.80;1.80;;;;;;;;;;5015150;28;20449;-71
2023/02/26 03:53:50;;;;;;;4.60;1.42;;;;;;;;;;5015389;28;20018;-71
2023/02/26 03:56:27;;;;;;;9.20;1.45;;;;;;;;;;5028861;28;20032;-71
2023/02/26 03:58:52;;;;;;;6.22;1.30;;;;;;;;;;5030166;28;20048;-71
2023/02/26 04:01:19;;;;;;;7.55;1.25;;;;;;;;;;5025561;28;20025;-71
2023/02/26 04:03:48;;;;;;;11.38;1.67;;;;;;;;;;5028533;28;20075;-71
2023/02/26 04:06:13;;;;;;;6.65;2.28;;;;;;;;;;5022273;28;20079;-71
2023/02/26 04:08:39;;;;;;;8.23;1.20;;;;;;;;;;5023045;28;20421;-71
2023/02/26 04:11:06;;;;;;;4.22;1.23;;;;;;;;;;5021075;28;20025;-71
2023/02/26 04:13:32;;;;;;;5.38;1.33;;;;;;;;;;5023680;28;20120;-71
2023/02/26 04:15:57;;;;;;;4.38;1.45;;;;;;;;;;5015390;28;20120;-71
2023/02/26 04:18:22;;;;;;;10.70;1.33;;;;;;;;;;5017040;28;20037;-71
2023/02/26 04:20:47;;;;;;;4.97;1.25;;;;;;;;;;5021944;28;20275;-71
2023/02/26 04:23:12;;;;;;;7.15;2.17;;;;;;;;;;5024809;28;20482;-71
2023/02/26 04:25:37;;;;;;;8.77;1.40;;;;;;;;;;5017059;28;20025;-72
2023/02/26 04:28:03;;;;;;;11.20;1.23;;;;;;;;;;5023998;28;20831;-71
2023/02/26 04:30:28;;;;;;;3.78;1.38;;;;;;;;;;5015144;28;20018;-71
2023/02/26 04:32:53;;;;;;;5.25;1.60;;;;;;;;;;5018442;28;20489;-71
2023/02/26 04:35:18;;;;;;;6.78;1.60;;;;;;;;;;5018112;28;20029;-71
2023/02/26 04:37:43;;;;;;;9.13;1.67;;;;;;;;;;5024955;28;20033;-71
2023/02/26 04:40:09;;;;;;;4.38;1.30;;;;;;;;;;5010691;28;20276;-71
2023/02/26 04:42:34;;;;;;;4.22;1.15;;;;;;;;;;5024668;28;20617;-71
2023/02/26 04:44:59;;;;;;;3.08;1.42;;;;;;;;;;5026421;28;20017;-71
2023/02/26 04:47:24;;;;;;;9.03;1.40;;;;;;;;;;5027585;28;20509;-71
2023/02/26 04:49:49;;;;;;;8.80;1.55;;;;;;;;;;5028706;28;20486;-71
2023/02/26 04:52:15;;;;;;;5.68;1.67;;;;;;;;;;5025192;28;20025;-71
2023/02/26 04:54:40;;;;;;;5.90;1.73;;;;;;;;;;5019774;28;20032;-72
2023/02/26 04:57:05;;;;;;;8.00;1.83;;;;;;;;;;5024473;28;20280;-71
2023/02/26 04:59:30;;;;;;;10.50;1.33;;;;;;;;;;5029172;28;20048;-71
2023/02/26 05:01:56;;;;;;;5.45;1.58;;;;;;;;;;5022567;28;20032;-71
2023/02/26 05:04:21;;;;;;;5.13;1.23;;;;;;;;;;5026812;28;20966;-71
2023/02/26 05:06:46;;;;;;;8.63;1.30;;;;;;;;;;5023404;28;20071;-71
2023/02/26 05:09:11;;;;;;;13.48;1.45;;;;;;;;;;5029328;28;20268;-71
2023/02/26 05:11:36;;;;;;;8.30;1.30;;;;;;;;;;5022965;28;20069;-71
2023/02/26 05:14:02;;;;;;;5.40;1.00;;;;;;;;;;5029310;28;20014;-71
2023/02/26 05:16:27;;;;;;;13.13;1.70;;;;;;;;;;5024739;28;20425;-71
2023/02/26 05:18:52;;;;;;;6.70;1.00;;;;;;;;;;5027800;28;20410;-71
2023/02/26 05:21:17;;;;;;;8.35;1.42;;;;;;;;;;5023071;28;20112;-71
2023/02/26 05:23:42;;;;;;;10.75;1.45;;;;;;;;;;5021717;28;20104;-71
2023/02/26 05:26:08;;;;;;;2.92;1.20;;;;;;;;;;5026168;28;20024;-71
2023/02/26 05:28:33;;;;;;;4.82;1.42;;;;;;;;;;5023825;28;20116;-71
2023/02/26 05:30:58;;;;;;;5.53;1.27;;;;;;;;;;5029112;28;20121;-71
2023/02/26 05:33:23;;;;;;;3.75;1.45;;;;;;;;;;5024619;28;20417;-71
2023/02/26 05:35:49;;;;;;;11.13;1.38;;;;;;;;;;5026272;28;20029;-71
2023/02/26 05:38:14;;;;;;;7.75;1.52;;;;;;;;;;5026683;28;20021;-71
2023/02/26 05:40:39;;;;;;;4.75;1.15;;;;;;;;;;5026991;28;20018;-72
2023/02/26 05:43:05;;;;;;;2.47;1.23;;;;;;;;;;5022828;28;20036;-71
2023/02/26 05:45:30;;;;;;;10.80;1.50;;;;;;;;;;5027238;28;20033;-71
2023/02/26 05:47:55;;;;;;;4.00;1.37;;;;;;;;;;5025134;28;20029;-71
2023/02/26 05:50:20;;;;;;;7.50;2.17;;;;;;;;;;5025247;28;20486;-71
2023/02/26 05:52:45;;;;;;;4.00;1.30;;;;;;;;;;5021381;28;20637;-71
2023/02/26 05:55:11;;;;;;;5.25;0.98;;;;;;;;;;5027655;28;20092;-71
2023/02/26 05:57:36;;;;;;;5.75;1.50;;;;;;;;;;5026962;28;20025;-72
2023/02/26 06:00:03;;;;;;;7.97;1.50;;;;;;;;;;5032448;28;20418;-71
2023/02/26 06:02:28;;;;;;;7.97;2.00;;;;;;;;;;5025126;28;20021;-71
2023/02/26 06:04:54;;;;;;;4.93;1.70;;;;;;;;;;5030903;28;20025;-71
2023/02/26 06:07:19;;;;;;;6.18;1.55;;;;;;;;;;5024494;28;20431;-71
2023/02/26 06:09:44;;;;;;;9.10;1.60;;;;;;;;;;5028569;28;20185;-71
2023/02/26 06:12:10;;;;;;;5.38;1.38;;;;;;;;;;5023760;28;20835;-71
2023/02/26 06:14:35;;;;;;;8.40;1.63;;;;;;;;;;5030552;28;20017;-71
2023/02/26 06:17:01;;;;;;;9.30;1.75;;;;;;;;;;5023117;28;20052;-71
2023/02/26 06:19:26;;;;;;;6.95;1.65;;;;;;;;;;5022769;28;20100;-71
2023/02/26 06:21:52;;;;;;;6.50;1.77;;;;;;;;;;5022873;28;20072;-71
2023/02/26 06:24:17;;;;;;;5.20;1.40;;;;;;;;;;5012794;28;20056;-72
2023/02/26 06:26:42;;;;;;;4.72;1.48;;;;;;;;;;5026836;28;20510;-71
2023/02/26 06:29:07;;;;;;;7.43;1.45;;;;;;;;;;5028338;28;20558;-71
2023/02/26 06:31:32;;;;;;;4.15;1.23;;;;;;;;;;5022276;28;20265;-71
2023/02/26 06:33:58;;;;;;;7.28;1.80;;;;;;;;;;5017941;28;20120;-71
2023/02/26 06:36:23;;;;;;;4.35;1.50;;;;;;;;;;5019546;28;20025;-71
2023/02/26 06:38:48;;;;;;;4.10;1.57;;;;;;;;;;5020889;28;20478;-71
2023/02/26 06:41:13;;;;;;;8.77;1.73;;;;;;;;;;5026078;28;20303;-71
2023/02/26 06:43:38;;;;;;;7.30;2.08;;;;;;;;;;5021190;28;20491;-71
2023/02/26 06:46:04;;;;;;;8.82;2.30;;;;;;;;;;5023323;28;20028;-71
2023/02/26 06:48:29;;;;;;;10.70;1.67;;;;;;;;;;5019531;28;20501;-72
2023/02/26 06:50:54;;;;;;;8.60;1.80;;;;;;;;;;5026187;28;20033;-72
2023/02/26 06:53:20;;;;;;;9.98;1.55;;;;;;;;;;5019512;28;20395;-71
2023/02/26 06:55:46;;;;;;;8.10;1.75;;;;;;;;;;5023511;28;20100;-71
2023/02/26 06:58:12;;;;;;;10.48;1.88;;;;;;;;;;5016615;28;20494;-71
2023/02/26 07:00:38;;;;;;;5.80;1.65;;;;;;;;;;5020930;28;20042;-71
2023/02/26 07:03:03;;;;;;;8.52;1.80;;;;;;;;;;5019872;28;20468;-71
2023/02/26 07:05:28;;;;;;;8.68;1.77;;;;;;;;;;5013964;28;20029;-72
2023/02/26 07:07:53;;;;;;;7.63;2.03;;;;;;;;;;5017028;28;20025;-71
2023/02/26 07:10:20;;;;;;;6.20;1.73;;;;;;;;;;5019417;28;20041;-71
2023/02/26 07:12:45;;;;;;;4.43;2.38;;;;;;;;;;5024689;28;20043;-71
2023/02/26 07:15:10;;;;;;;12.20;2.25;;;;;;;;;;5023773;28;20482;-71
2023/02/26 07:17:35;;;;;;;4.68;2.40;;;;;;;;;;5021507;28;20022;-71
2023/02/26 07:20:05;;;;;;;11.07;2.20;;;;;;;;;;5028759;28;20049;-71
2023/02/26 07:22:31;;;;;;;6.53;2.63;;;;;;;;;;5026879;28;20319;-72
2023/02/26 07:24:56;;;;;;;7.47;2.40;;;;;;;;;;5027836;28;20021;-71
2023/02/26 07:27:21;;;;;;;5.68;2.20;;;;;;;;;;5031445;28;20509;-71
2023/02/26 07:29:46;;;;;;;10.03;2.13;;;;;;;;;;5017575;28;20017;-72
2023/02/26 07:32:12;;;;;;;9.33;2.13;;;;;;;;;;5026284;28;20984;-72
2023/02/26 07:34:37;;;;;;;10.98;2.45;;;;;;;;;;5024193;28;20367;-72
2023/02/26 07:37:02;;;;;;;12.67;2.00;;;;;;;;;;5021484;28;20288;-72
2023/02/26 07:39:27;;;;;;;3.47;1.90;;;;;;;;;;5018562;28;20339;-72
2023/02/26 07:41:53;;;;;;;8.23;1.92;;;;;;;;;;5023226;28;20279;-72
2023/02/26 07:44:18;;;;;;;7.88;1.88;;;;;;;;;;5022489;28;20069;-72
2023/02/26 07:46:43;;;;;;;8.30;2.13;;;;;;;;;;5022656;28;20051;-72
2023/02/26 07:49:09;;;;;;;5.40;2.08;;;;;;;;;;5021677;28;20268;-72
2023/02/26 07:51:34;;;;;;;8.48;2.13;;;;;;;;;;5027410;28;20070;-72
2023/02/26 07:53:59;;;;;;;7.85;2.00;;;;;;;;;;5029343;28;20032;-72
2023/02/26 07:56:24;;;;;;;5.93;1.70;;;;;;;;;;5023137;28;20025;-72
2023/02/26 07:58:50;;;;;;;6.18;1.90;;;;;;;;;;5018442;28;20273;-72
2023/02/26 08:01:15;;;;;;;7.55;1.88;;;;;;;;;;5021840;28;20114;-72
2023/02/26 08:03:40;;;;;;;4.72;2.10;;;;;;;;;;5024355;28;20291;-72
2023/02/26 08:06:06;;;;;;;6.80;1.90;;;;;;;;;;5019694;28;20021;-72
2023/02/26 08:08:32;;;;;;;6.38;2.13;;;;;;;;;;5028866;28;20267;-72
2023/02/26 08:10:58;;;;;;;5.80;1.88;;;;;;;;;;5019182;28;20022;-72
2023/02/26 08:13:23;;;;;;;12.73;1.65;;;;;;;;;;5015752;28;20033;-72
2023/02/26 08:15:48;;;;;;;8.60;2.07;;;;;;;;;;5024299;28;20017;-72
2023/02/26 08:18:13;;;;;;;8.48;2.35;;;;;;;;;;5019377;28;20304;-72
2023/02/26 08:20:38;;;;;;;6.53;1.80;;;;;;;;;;5030016;28;20053;-72
2023/02/26 08:23:03;;;;;;;4.97;1.75;;;;;;;;;;5025925;28;21239;-72
2023/02/26 08:25:29;;;;;;;6.60;1.77;;;;;;;;;;5027977;28;20075;-72
2023/02/26 08:27:56;;;;;;;9.10;1.83;;;;;;;;;;5023321;28;20265;-72
2023/02/26 08:30:21;;;;;;;3.92;1.48;;;;;;;;;;5027865;28;20757;-72
2023/02/26 08:32:48;;;;;;;6.47;2.13;;;;;;;;;;5024031;28;20072;-72
2023/02/26 08:35:13;;;;;;;7.90;1.85;;;;;;;;;;5023632;28;20299;-72
2023/02/26 08:37:39;;;;;;;5.72;1.40;;;;;;;;;;5027804;28;20388;-70
2023/02/26 08:40:05;;;;;;;5.83;1.80;;;;;;;;;;5028377;28;20136;-72
2023/02/26 08:42:30;;;;;;;7.38;1.77;;;;;;;;;;5016255;28;20331;-72
2023/02/26 08:44:55;;;;;;;6.72;1.63;;;;;;;;;;5019176;28;20664;-72
2023/02/26 08:47:21;;;;;;;8.43;1.63;;;;;;;;;;5016217;28;20026;-72
2023/02/26 08:49:46;;;;;;;5.38;1.90;;;;;;;;;;5026590;28;20256;-72
2023/02/26 08:52:11;;;;;;;4.72;1.27;;;;;;;;;;5019891;28;20018;-71
2023/02/26 08:54:36;;;;;;;7.50;1.42;;;;;;;;;;5020149;28;20032;-72
2023/02/26 08:57:02;;;;;;;6.47;2.28;;;;;;;;;;5019427;28;20028;-72
2023/02/26 08:59:27;;;;;;;5.60;1.90;;;;;;;;;;5013316;28;20030;-71
2023/02/26 09:01:52;;;;;;;8.70;1.92;;;;;;;;;;5017934;28;20029;-72
2023/02/26 09:04:17;;;;;;;4.50;1.50;;;;;;;;;;5023659;28;20028;-71
2023/02/26 09:06:43;;;;;;;4.93;1.40;;;;;;;;;;5026939;28;20264;-72
2023/02/26 09:09:08;;;;;;;3.70;1.17;;;;;;;;;;5025482;28;20028;-72
2023/02/26 09:11:35;;;;;;;6.30;1.60;;;;;;;;;;5026504;28;20672;-72
2023/02/26 09:14:02;;;;;;;5.57;1.48;;;;;;;;;;5024424;28;20021;-72
2023/02/26 09:16:27;;;;;;;6.72;1.70;;;;;;;;;;5025209;28;20021;-72
2023/02/26 09:18:52;;;;;;;2.92;1.45;;;;;;;;;;5025869;28;20036;-71
2023/02/26 09:21:17;;;;;;;4.70;1.83;;;;;;;;;;5024055;28;20025;-72
2023/02/26 09:23:43;;;;;;;4.73;1.70;;;;;;;;;;5024603;28;20042;-71
2023/02/26 09:26:08;;;;;;;5.83;1.37;;;;;;;;;;5022735;28;20276;-72
2023/02/26 09:28:34;;;;;;;6.65;1.25;;;;;;;;;;5023692;28;20272;-71
2023/02/26 09:30:59;;;;;;;6.45;1.13;;;;;;;;;;5018574;28;20032;-71
2023/02/26 09:33:24;;;;;;;6.40;1.25;;;;;;;;;;5027929;28;20784;-71
2023/02/26 09:35:50;;;;;;;2.73;0.80;;;;;;;;;;5017564;28;20022;-71
2023/02/26 09:38:15;;;;;;;4.55;1.27;;;;;;;;;;5019912;28;20331;-71
2023/02/26 09:40:47;;;;;;;6.65;1.25;;;;;;;;;;5018401;28;20017;-71
2023/02/26 09:43:12;;;;;;;8.05;1.10;;;;;;;;;;5021759;28;20025;-71
2023/02/26 09:45:39;;;;;;;4.73;1.13;;;;;;;;;;5020915;28;20024;-71
2023/02/26 09:48:05;;;;;;;3.17;1.10;;;;;;;;;;5022422;28;20339;-71
2023/02/26 09:50:37;;;;;;;3.90;1.27;;;;;;;;;;5026206;28;20064;-71
2023/02/26 09:53:13;;;;;;;3.00;1.00;;;;;;;;;;5015655;28;20021;-71
2023/02/26 09:55:42;;;;;;;2.47;1.10;;;;;;;;;;5031810;28;20033;-73
2023/02/26 09:58:13;;;;;;;6.95;1.00;;;;;;;;;;5024188;28;20036;-71
2023/02/26 10:00:47;;;;;;;5.18;1.20;;;;;;;;;;5020289;28;20036;-71
2023/02/26 10:03:35;;;;;;;3.35;1.10;;;;;;;;;;5025073;28;20709;-71
2023/02/26 10:06:06;;;;;;;2.95;1.00;;;;;;;;;;5022685;28;20047;-70
2023/02/26 10:08:38;;;;;;;6.53;1.25;;;;;;;;;;5023509;28;20029;-71
2023/02/26 10:11:06;;;;;;;6.05;1.38;;;;;;;;;;5026603;28;20021;-70
2023/02/26 10:13:41;;;;;;;4.95;1.02;;;;;;;;;;5022113;28;20021;-71
2023/02/26 10:16:08;;;;;;;4.05;0.98;;;;;;;;;;5021887;28;20025;-70
2023/02/26 10:18:35;;;;;;;4.40;0.70;;;;;;;;;;5020468;28;20061;-71
2023/02/26 10:21:11;;;;;;;2.50;0.82;;;;;;;;;;5028000;28;20033;-70
2023/02/26 10:23:36;;;;;;;5.15;1.00;;;;;;;;;;5021899;28;20040;-71
2023/02/26 10:26:20;;;;;;;7.72;1.40;;;;;;;;;;5018433;28;20021;-70
2023/02/26 10:29:04;;;;;;;2.40;0.95;;;;;;;;;;5020707;28;20029;-70
2023/02/26 10:31:35;;;;;;;2.42;0.68;;;;;;;;;;5028387;28;20138;-71
2023/02/26 10:34:00;;;;;;;6.55;0.68;;;;;;;;;;5021788;28;20059;-70
2023/02/26 10:36:27;;;;;;;0.95;0.47;;;;;;;;;;5020721;28;20033;-71
2023/02/26 10:39:03;;;;;;;4.05;0.80;;;;;;;;;;5017459;28;20108;-71
2023/02/26 10:41:30;;;;;;;2.22;0.82;;;;;;;;;;5027020;28;20029;-71
2023/02/26 10:44:17;;;;;;;2.80;0.80;;;;;;;;;;5022118;28;20029;-71
2023/02/26 10:46:57;;;;;;;1.58;0.70;;;;;;;;;;5027606;28;20548;-71
2023/02/26 10:49:28;;;;;;;3.15;0.90;;;;;;;;;;5022043;28;20478;-71
2023/02/26 10:51:54;;;;;;;6.03;0.88;;;;;;;;;;5025499;28;20014;-71
2023/02/26 10:54:28;;;;;;;1.75;0.85;;;;;;;;;;5017434;28;20421;-71
2023/02/26 10:56:53;;;;;;;3.92;0.65;;;;;;;;;;5023756;28;20050;-71
2023/02/26 10:59:18;;;;;;;1.27;0.60;;;;;;;;;;5018875;28;20026;-71
2023/02/26 11:01:43;;;;;;;5.33;0.93;;;;;;;;;;5022324;28;20606;-72
2023/02/26 11:04:13;;;;;;;4.18;0.93;;;;;;;;;;5027466;28;20307;-71
2023/02/26 11:06:49;;;;;;;4.15;1.00;;;;;;;;;;5020573;28;20615;-71
2023/02/26 11:09:21;;;;;;;3.03;0.65;;;;;;;;;;5015929;28;20537;-72
2023/02/26 11:11:46;;;;;;;6.30;0.80;;;;;;;;;;5022121;28;20032;-71
2023/02/26 11:14:13;;;;;;;5.43;0.95;;;;;;;;;;5023224;28;20025;-71
2023/02/26 11:16:46;;;;;;;2.88;0.88;;;;;;;;;;5028396;28;20021;-71
2023/02/26 11:19:12;;;;;;;3.58;0.90;;;;;;;;;;5024061;28;20025;-71
2023/02/26 11:21:39;;;;;;;2.05;0.70;;;;;;;;;;5020525;28;20030;-71
2023/02/26 11:24:06;;;;;;;2.38;0.80;;;;;;;;;;5017957;28;20048;-71
2023/02/26 11:26:33;;;;;;;2.58;0.93;;;;;;;;;;5022905;28;20026;-71
2023/02/26 11:28:59;;;;;;;4.03;1.35;;;;;;;;;;5020937;28;20079;-71
2023/02/26 11:31:25;;;;;;;4.30;0.82;;;;;;;;;;5025208;28;20021;-71
2023/02/26 11:33:54;;;;;;;4.70;0.88;;;;;;;;;;5025497;28;20659;-71
2023/02/26 11:36:20;;;;;;;1.23;0.57;;;;;;;;;;5022555;28;20394;-71
2023/02/26 11:38:51;;;;;;;1.90;0.60;;;;;;;;;;5022407;28;20079;-71
2023/02/26 11:41:16;;;;;;;6.13;0.88;;;;;;;;;;5020073;28;20171;-71
2023/02/26 11:43:42;;;;;;;4.22;1.17;;;;;;;;;;5017902;28;20637;-72
2023/02/26 11:46:08;;;;;;;4.47;0.80;;;;;;;;;;5026020;28;20025;-71
2023/02/26 11:48:33;;;;;;;2.80;0.85;;;;;;;;;;5014012;28;20099;-71
2023/02/26 11:50:59;;;;;;;1.75;0.65;;;;;;;;;;5018144;28;20034;-71
2023/02/26 11:53:41;;;;;;;3.80;1.23;;;;;;;;;;5023232;28;20028;-71
2023/02/26 11:56:11;;;;;;;2.20;1.00;;;;;;;;;;5023280;28;20065;-71
2023/02/26 11:58:37;;;;;;;5.30;1.00;;;;;;;;;;5019602;28;20021;-71
2023/02/26 12:01:03;;;;;;;2.75;0.80;;;;;;;;;;5030924;28;20029;-71
2023/02/26 12:03:32;;;;;;;2.15;0.70;;;;;;;;;;5024216;28;20387;-72
2023/02/26 12:05:58;;;;;;;2.78;0.80;;;;;;;;;;5026828;28;20028;-73
2023/02/26 12:08:23;;;;;;;3.38;1.00;;;;;;;;;;5024256;28;20063;-72
2023/02/26 12:11:11;;;;;;;4.75;0.93;;;;;;;;;;5027301;28;20025;-72
2023/02/26 12:13:42;;;;;;;2.70;1.13;;;;;;;;;;5014057;28;20612;-72
2023/02/26 12:16:07;;;;;;;;;;;;;;;;;;5023939;28;20040;-72
2023/02/26 12:18:42;;;;;;;3.75;1.00;;;;;;;;;;5026011;28;20605;-72
2023/02/26 12:21:39;;;;;;;1.30;0.50;;;;;;;;;;5021079;28;20490;-72
2023/02/26 12:24:14;;;;;;;2.45;0.70;;;;;;;;;;4994937;28;20080;-72
2023/02/26 12:26:41;;;;;;;6.28;0.70;;;;;;;;;;5026084;28;20026;-72
2023/02/26 12:29:13;;;;;;;3.10;0.75;;;;;;;;;;5024829;28;20018;-72
2023/02/26 12:31:50;;;;;;;5.60;0.70;;;;;;;;;;5028069;28;20068;-73
2023/02/26 12:34:19;;;;;;;1.55;0.85;;;;;;;;;;5027049;28;20017;-72
2023/02/26 12:36:47;;;;;;;3.80;0.90;;;;;;;;;;5017123;28;20017;-72
2023/02/26 12:39:27;;;;;;;3.55;0.65;;;;;;;;;;5022419;28;20367;-72
2023/02/26 12:41:52;;;;;;;;;;;;;;;;;;5017290;28;20457;-72
2023/02/26 12:44:33;;;;;;;4.20;0.75;;;;;;;;;;5016240;28;19960;-72
2023/02/26 12:47:22;;;;;;;2.35;0.90;;;;;;;;;;5014172;28;20456;-72
2023/02/26 12:50:06;;;;;;;4.70;1.10;;;;;;;;;;5022639;28;20040;-72
2023/02/26 12:52:49;;;;;;;4.53;1.98;;;;;;;;;;5020677;28;20031;-72
2023/02/26 12:55:17;;;;;;;4.30;1.27;;;;;;;;;;5020054;28;20034;-72
2023/02/26 12:57:48;;;;;;;3.58;0.80;;;;;;;;;;5021626;28;20497;-72
2023/02/26 13:00:39;;;;;;;4.47;1.02;;;;;;;;;;5014307;28;20704;-72
2023/02/26 13:03:04;;;;;;;;;;;;;;;;;;5013519;28;20399;-72
2023/02/26 13:05:48;;;;;;;1.95;1.05;;;;;;;;;;5019922;28;19964;-72
2023/02/26 13:08:21;;;;;;;3.70;1.20;;;;;;;;;;5016234;28;20061;-71
2023/02/26 13:11:04;;;;;;;1.48;0.55;;;;;;;;;;5017204;28;20028;-72
2023/02/26 13:13:37;;;;;;;3.20;0.70;;;;;;;;;;5020249;28;20056;-72
2023/02/26 13:16:40;;;;;;;3.13;0.80;;;;;;;;;;5015847;28;20430;-72
2023/02/26 13:19:06;;;;;;;1.58;0.90;;;;;;;;;;5019996;28;20076;-72
2023/02/26 13:21:36;;;;;;;3.60;0.82;;;;;;;;;;5014336;28;20113;-71
2023/02/26 13:24:04;;;;;;;7.75;1.70;;;;;;;;;;5020431;28;20029;-72
2023/02/26 13:26:30;;;;;;;2.65;1.00;;;;;;;;;;5016142;28;20041;-72
2023/02/26 13:29:01;;;;;;;3.83;0.98;;;;;;;;;;5016167;28;20382;-72
2023/02/26 13:31:29;;;;;;;1.85;0.82;;;;;;;;;;5018481;28;20364;-72
2023/02/26 13:33:57;;;;;;;2.85;0.70;;;;;;;;;;5021337;28;20045;-72
2023/02/26 13:36:24;;;;;;;3.55;0.98;;;;;;;;;;5015722;28;20021;-72
2023/02/26 13:38:56;;;;;;;3.45;0.90;;;;;;;;;;5017653;28;20079;-72
2023/02/26 13:41:39;;;;;;;3.03;0.90;;;;;;;;;;5021982;28;20100;-71
2023/02/26 13:44:20;;;;;;;3.05;0.98;;;;;;;;;;5021077;28;20076;-72
2023/02/26 13:46:55;;;;;;;4.30;0.77;;;;;;;;;;5021793;28;20564;-72
2023/02/26 13:49:28;;;;;;;3.10;0.65;;;;;;;;;;5015445;28;20026;-72
2023/02/26 13:51:53;;;;;;;1.60;0.60;;;;;;;;;;5021048;28;20433;-72
2023/02/26 13:54:19;;;;;;;1.83;0.60;;;;;;;;;;5021092;28;20029;-72
2023/02/26 13:57:03;;;;;;;1.88;0.82;;;;;;;;;;5020374;28;20040;-71
2023/02/26 13:59:29;;;;;;;5.13;0.70;;;;;;;;;;5022341;28;20358;-72
2023/02/26 14:01:56;;;;;;;5.78;0.95;;;;;;;;;;5018583;28;20054;-72
2023/02/26 14:04:21;;;;;;;3.28;0.63;;;;;;;;;;5020774;28;20026;-71
2023/02/26 14:06:57;;;;;;;2.40;0.60;;;;;;;;;;5011606;28;20379;-72
2023/02/26 14:09:22;;;;;;;2.83;0.70;;;;;;;;;;5011080;28;20033;-72
2023/02/26 14:11:53;;;;;;;4.20;1.00;;;;;;;;;;5012567;28;20013;-71
2023/02/26 14:14:24;;;;;;;8.88;1.23;;;;;;;;;;5013898;28;20116;-73
2023/02/26 14:16:49;;;;;;;;;;;;;;;;;;5029062;28;20009;-73
2023/02/26 14:19:22;;;;;;;2.58;0.70;;;;;;;;;;5026101;28;19924;-71
2023/02/26 14:21:48;;;;;;;5.47;0.93;;;;;;;;;;5022401;28;20025;-72
2023/02/26 14:24:19;;;;;;;2.45;0.93;;;;;;;;;;5034016;28;20623;-72
2023/02/26 14:26:48;;;;;;;2.67;1.00;;;;;;;;;;5026644;28;20026;-72
2023/02/26 14:29:13;;;;;;;2.58;0.63;;;;;;;;;;5026429;28;20022;-72
2023/02/26 14:31:57;;;;;;;3.63;0.82;;;;;;;;;;5026132;28;20371;-72
2023/02/26 14:34:24;;;;;;;2.83;0.63;;;;;;;;;;5020881;28;20386;-73
2023/02/26 14:36:58;;;;;;;1.83;0.73;;;;;;;;;;5024224;28;20021;-72
2023/02/26 14:39:27;;;;;;;1.80;0.70;;;;;;;;;;5017798;28;20746;-72
2023/02/26 14:41:55;;;;;;;2.90;0.70;;;;;;;;;;5023580;28;20025;-72
2023/02/26 14:44:33;;;;;;;1.80;0.88;;;;;;;;;;5016456;28;20161;-72
2023/02/26 14:46:59;;;;;;;1.23;0.60;;;;;;;;;;5028734;28;20450;-71
2023/02/26 14:49:31;;;;;;;3.83;0.70;;;;;;;;;;5018389;28;20048;-72